Time;durP1;ratioP1;P1;durP2;ratioP2;P2;SDS_P1;SDS_P2;PMS_P1;PMS_P2;Temp;Humidity;BMP_temperature;BMP_pressure;BME280_temperature;BME280_humidity;BME280_pressure;Samples;Min_cycle;Max_cycle;Signal;HPM_P1;HPM_P2
2022/04/06 00:01:45;;;;;;;33.42;17.38;;;9.00;99.90;;;;;;5044086;28;20140;-63
2022/04/06 00:04:11;;;;;;;28.40;18.55;;;9.00;99.90;;;;;;5041679;28;20037;-62
2022/04/06 00:06:37;;;;;;;33.75;18.73;;;9.00;99.90;;;;;;5028416;28;20072;-62
2022/04/06 00:09:04;;;;;;;31.65;19.95;;;9.00;99.90;;;;;;5039277;28;20049;-62
2022/04/06 00:11:31;;;;;;;31.73;19.85;;;9.00;99.90;;;;;;5025659;28;20155;-62
2022/04/06 00:13:58;;;;;;;34.58;20.13;;;9.00;99.90;;;;;;5025296;28;20041;-63
2022/04/06 00:16:24;;;;;;;32.00;20.73;;;9.00;99.90;;;;;;5051180;28;20057;-57
2022/04/06 00:18:51;;;;;;;34.42;21.20;;;9.00;99.90;;;;;;5038078;28;20325;-57
2022/04/06 00:21:18;;;;;;;36.33;20.52;;;9.00;99.90;;;;;;5043261;28;20484;-57
2022/04/06 00:23:44;;;;;;;33.70;20.35;;;9.10;99.90;;;;;;5046522;28;20426;-62
2022/04/06 00:26:10;;;;;;;36.70;20.30;;;9.10;99.90;;;;;;5045190;28;20306;-63
2022/04/06 00:28:36;;;;;;;35.15;20.00;;;9.10;99.90;;;;;;5047033;28;20045;-63
2022/04/06 00:31:03;;;;;;;32.45;19.23;;;9.10;99.90;;;;;;5046637;28;20050;-63
2022/04/06 00:33:29;;;;;;;27.92;18.15;;;9.10;99.90;;;;;;5035176;28;20477;-63
2022/04/06 00:35:56;;;;;;;32.97;18.48;;;9.10;99.90;;;;;;5051939;28;20053;-62
2022/04/06 00:38:22;;;;;;;32.55;18.02;;;9.10;99.90;;;;;;5050876;28;20044;-63
2022/04/06 00:40:48;;;;;;;35.08;18.58;;;9.10;99.90;;;;;;5039393;28;21491;-63
2022/04/06 00:43:14;;;;;;;36.05;19.05;;;9.10;99.90;;;;;;5056734;28;20040;-63
2022/04/06 00:45:42;;;;;;;32.22;18.85;;;9.00;99.90;;;;;;5052334;28;20045;-63
2022/04/06 00:48:09;;;;;;;29.58;17.83;;;9.10;99.90;;;;;;5049401;28;20106;-63
2022/04/06 00:50:37;;;;;;;35.95;18.88;;;9.00;99.90;;;;;;5043431;28;20167;-63
2022/04/06 00:53:04;;;;;;;25.80;17.98;;;9.00;99.90;;;;;;5044203;28;20040;-63
2022/04/06 00:55:40;;;;;;;32.42;19.02;;;9.10;99.90;;;;;;5046688;28;20099;-63
2022/04/06 00:58:08;;;;;;;27.58;18.33;;;9.10;99.90;;;;;;5047491;28;21060;-63
2022/04/06 01:00:34;;;;;;;29.95;18.30;;;9.10;99.90;;;;;;5016439;28;20454;-63
2022/04/06 01:03:01;;;;;;;31.40;18.45;;;9.10;99.90;;;;;;5061702;28;20087;-64
2022/04/06 01:05:27;;;;;;;32.40;17.83;;;9.00;99.90;;;;;;5047512;28;20049;-63
2022/04/06 01:07:56;;;;;;;31.13;17.38;;;9.00;99.90;;;;;;5047658;28;20188;-62
2022/04/06 01:10:22;;;;;;;32.13;17.65;;;9.00;99.90;;;;;;5047232;28;20083;-63
2022/04/06 01:12:49;;;;;;;30.98;18.08;;;9.00;99.90;;;;;;5040185;28;20053;-63
2022/04/06 01:15:16;;;;;;;33.08;18.05;;;8.90;99.90;;;;;;5068218;28;20093;-63
2022/04/06 01:17:43;;;;;;;24.58;16.10;;;8.90;99.90;;;;;;5066544;28;20134;-63
2022/04/06 01:20:11;;;;;;;24.52;15.77;;;9.00;99.90;;;;;;5046747;28;20122;-63
2022/04/06 01:22:37;;;;;;;34.17;16.58;;;9.00;99.90;;;;;;5030475;28;20036;-64
2022/04/06 01:25:05;;;;;;;30.20;17.08;;;9.00;99.90;;;;;;5058184;28;20086;-63
2022/04/06 01:27:31;;;;;;;30.88;16.63;;;8.90;99.90;;;;;;5049828;28;20791;-63
2022/04/06 01:29:57;;;;;;;25.77;15.23;;;9.00;99.90;;;;;;5048381;28;20446;-63
2022/04/06 01:32:26;;;;;;;32.38;15.18;;;9.00;99.90;;;;;;5032305;28;20129;-63
2022/04/06 01:34:54;;;;;;;30.40;14.77;;;9.10;99.90;;;;;;5043163;28;20075;-63
2022/04/06 01:37:22;;;;;;;32.40;16.42;;;9.10;99.90;;;;;;5047252;28;20079;-63
2022/04/06 01:39:49;;;;;;;31.48;15.50;;;9.10;99.90;;;;;;5030260;28;20040;-63
2022/04/06 01:42:17;;;;;;;26.98;14.75;;;9.10;99.90;;;;;;5046799;28;20516;-63
2022/04/06 01:44:45;;;;;;;29.70;14.63;;;9.10;99.90;;;;;;5047449;28;20420;-64
2022/04/06 01:47:14;;;;;;;27.20;14.50;;;9.10;99.90;;;;;;5051188;28;20119;-63
2022/04/06 01:52:27;;;;;;;26.25;14.40;;;9.10;99.90;;;;;;5056444;28;20471;-64
2022/04/06 01:54:56;;;;;;;29.08;13.50;;;9.10;99.90;;;;;;5046212;28;20901;-64
2022/04/06 01:57:23;;;;;;;28.15;14.40;;;9.10;99.90;;;;;;5032544;28;20040;-64
2022/04/06 01:59:49;;;;;;;23.52;13.30;;;9.10;99.90;;;;;;5036319;28;20478;-64
2022/04/06 02:02:18;;;;;;;35.30;15.88;;;9.10;99.90;;;;;;5002447;28;20091;-64
2022/04/06 02:04:44;;;;;;;19.65;12.80;;;9.10;99.90;;;;;;5047877;28;20045;-64
2022/04/06 02:07:13;;;;;;;28.40;13.15;;;9.10;99.90;;;;;;5048874;28;20183;-64
2022/04/06 02:09:40;;;;;;;24.10;11.95;;;9.10;99.90;;;;;;5044096;28;20061;-64
2022/04/06 02:12:10;;;;;;;22.20;11.88;;;9.10;99.90;;;;;;4999938;28;20055;-64
2022/04/06 02:14:38;;;;;;;22.38;11.50;;;9.00;99.90;;;;;;5033501;28;20041;-63
2022/04/06 02:17:06;;;;;;;21.95;11.23;;;9.10;99.90;;;;;;5045606;28;20044;-64
2022/04/06 02:19:33;;;;;;;22.23;11.00;;;9.00;99.90;;;;;;5044540;28;20041;-64
2022/04/06 02:21:59;;;;;;;21.70;10.48;;;9.00;99.90;;;;;;5045133;28;20063;-64
2022/04/06 02:24:25;;;;;;;24.02;10.75;;;9.10;99.90;;;;;;5049534;28;20055;-59
2022/04/06 02:26:51;;;;;;;21.85;10.30;;;9.10;99.90;;;;;;5044278;28;20400;-58
2022/04/06 02:29:17;;;;;;;25.30;10.55;;;9.10;99.90;;;;;;5036981;28;20478;-57
2022/04/06 02:31:43;;;;;;;23.80;9.73;;;9.10;99.90;;;;;;5042038;28;20454;-58
2022/04/06 02:34:09;;;;;;;25.73;10.60;;;9.10;99.90;;;;;;5008951;28;20083;-58
2022/04/06 02:36:35;;;;;;;18.48;9.32;;;9.00;99.90;;;;;;5040585;28;20033;-64
2022/04/06 02:39:01;;;;;;;24.98;10.82;;;9.10;99.90;;;;;;5046976;28;20048;-64
2022/04/06 02:41:28;;;;;;;17.13;10.00;;;9.10;99.90;;;;;;5031604;28;20698;-63
2022/04/06 02:43:54;;;;;;;25.25;9.88;;;9.10;99.90;;;;;;5050993;28;20049;-63
2022/04/06 02:46:20;;;;;;;20.35;10.00;;;9.10;99.90;;;;;;5044831;28;20048;-63
2022/04/06 02:48:46;;;;;;;27.88;10.50;;;9.10;99.90;;;;;;5048881;28;20487;-64
2022/04/06 02:51:12;;;;;;;26.42;11.35;;;9.10;99.90;;;;;;5048988;28;20352;-63
2022/04/06 02:53:39;;;;;;;19.48;10.13;;;9.10;99.90;;;;;;5051964;28;20045;-64
2022/04/06 02:56:05;;;;;;;24.45;10.65;;;9.00;99.90;;;;;;5046293;28;20076;-64
2022/04/06 02:58:31;;;;;;;24.23;11.63;;;9.10;99.90;;;;;;5063577;28;20040;-64
2022/04/06 03:00:58;;;;;;;29.80;11.10;;;9.00;99.90;;;;;;5043226;28;20045;-64
2022/04/06 03:03:25;;;;;;;26.55;11.80;;;9.00;99.90;;;;;;5050550;28;20063;-63
2022/04/06 03:05:52;;;;;;;29.33;12.15;;;9.00;99.90;;;;;;5045312;28;20584;-57
2022/04/06 03:08:18;;;;;;;29.63;12.18;;;9.00;99.90;;;;;;5040472;28;20074;-63
2022/04/06 03:10:45;;;;;;;26.52;11.77;;;9.00;99.90;;;;;;5046938;28;20053;-57
2022/04/06 03:13:11;;;;;;;29.45;12.00;;;9.00;99.90;;;;;;5045512;28;20048;-58
2022/04/06 03:15:37;;;;;;;26.38;11.32;;;9.00;99.90;;;;;;5046002;28;20052;-58
2022/04/06 03:18:06;;;;;;;31.48;11.52;;;9.00;99.90;;;;;;5062713;28;20048;-57
2022/04/06 03:20:32;;;;;;;27.50;12.90;;;9.00;99.90;;;;;;5046650;28;20757;-63
2022/04/06 03:22:58;;;;;;;29.88;13.07;;;9.10;99.90;;;;;;5039462;28;20329;-63
2022/04/06 03:25:25;;;;;;;31.65;13.95;;;9.00;99.90;;;;;;5028856;28;20069;-63
2022/04/06 03:27:51;;;;;;;29.13;13.65;;;9.00;99.90;;;;;;5058657;28;20045;-63
2022/04/06 03:30:17;;;;;;;29.63;13.85;;;9.10;99.90;;;;;;5045718;28;20095;-63
2022/04/06 03:32:43;;;;;;;32.10;15.73;;;9.10;99.90;;;;;;5023204;28;20051;-64
2022/04/06 03:35:10;;;;;;;28.05;13.48;;;9.10;99.90;;;;;;5063988;28;20587;-63
2022/04/06 03:37:36;;;;;;;31.92;15.32;;;9.10;99.90;;;;;;5040524;28;20048;-63
2022/04/06 03:40:05;;;;;;;30.00;15.35;;;9.10;99.90;;;;;;5064147;28;20435;-64
2022/04/06 03:42:35;;;;;;;31.08;15.43;;;9.10;99.90;;;;;;5047647;28;20504;-63
2022/04/06 03:45:03;;;;;;;30.63;14.38;;;9.10;99.90;;;;;;5038713;28;20388;-63
2022/04/06 03:47:30;;;;;;;29.63;15.57;;;9.10;99.90;;;;;;5047762;28;20037;-57
2022/04/06 03:49:56;;;;;;;28.13;15.00;;;9.10;99.90;;;;;;5045685;28;20496;-57
2022/04/06 03:52:22;;;;;;;31.25;15.75;;;9.10;99.90;;;;;;5047876;28;20107;-57
2022/04/06 03:54:48;;;;;;;33.78;16.25;;;9.10;99.90;;;;;;5038960;28;20041;-58
2022/04/06 03:57:14;;;;;;;25.52;15.80;;;9.20;99.90;;;;;;5041944;28;20047;-63
2022/04/06 03:59:40;;;;;;;33.72;16.48;;;9.20;99.90;;;;;;5040078;28;20045;-63
2022/04/06 04:02:06;;;;;;;32.38;15.23;;;9.20;99.90;;;;;;5049094;28;20352;-64
2022/04/06 04:04:32;;;;;;;32.65;16.08;;;9.20;99.90;;;;;;5052150;28;20047;-63
2022/04/06 04:06:58;;;;;;;29.65;15.77;;;9.20;99.90;;;;;;5050202;28;20044;-63
2022/04/06 04:09:24;;;;;;;24.58;15.27;;;9.20;99.90;;;;;;5044517;28;20072;-63
2022/04/06 04:11:51;;;;;;;34.63;16.25;;;9.20;99.90;;;;;;5052481;28;20044;-63
2022/04/06 04:14:17;;;;;;;26.35;14.35;;;9.20;99.90;;;;;;5021787;28;20114;-63
2022/04/06 04:16:43;;;;;;;27.67;14.98;;;9.20;99.90;;;;;;5071818;28;20052;-64
2022/04/06 04:19:09;;;;;;;27.92;14.75;;;9.20;99.90;;;;;;5069887;28;20500;-63
2022/04/06 04:21:35;;;;;;;25.38;13.02;;;9.20;99.90;;;;;;5028110;28;20057;-63
2022/04/06 04:24:08;;;;;;;22.00;12.93;;;9.20;99.90;;;;;;5053290;28;20045;-63
2022/04/06 04:26:36;;;;;;;20.92;12.18;;;9.20;99.90;;;;;;5027325;28;20541;-63
2022/04/06 04:29:03;;;;;;;21.08;11.95;;;9.20;99.90;;;;;;5036129;28;20570;-63
2022/04/06 04:31:30;;;;;;;23.80;12.32;;;9.20;99.90;;;;;;5054738;28;20056;-63
2022/04/06 04:33:56;;;;;;;24.42;11.73;;;9.20;99.90;;;;;;5017078;28;20348;-63
2022/04/06 04:36:22;;;;;;;25.40;11.70;;;9.20;99.90;;;;;;5047969;28;20135;-63
2022/04/06 04:38:48;;;;;;;23.23;11.30;;;9.10;99.90;;;;;;5032468;28;20504;-63
2022/04/06 04:41:14;;;;;;;23.95;10.77;;;9.10;99.90;;;;;;5042384;28;20453;-63
2022/04/06 04:43:41;;;;;;;25.60;11.07;;;9.10;99.90;;;;;;5046398;28;20037;-63
2022/04/06 04:46:07;;;;;;;23.60;10.65;;;9.00;99.90;;;;;;5050027;28;20051;-64
2022/04/06 04:48:34;;;;;;;19.25;10.38;;;9.10;99.90;;;;;;5059345;28;20059;-57
2022/04/06 04:51:00;;;;;;;23.08;9.68;;;9.00;99.90;;;;;;5038101;28;20041;-62
2022/04/06 04:53:26;;;;;;;21.70;9.88;;;9.00;99.90;;;;;;5042282;28;20045;-57
2022/04/06 04:55:56;;;;;;;18.67;9.55;;;9.10;99.90;;;;;;5044684;28;20124;-58
2022/04/06 04:58:22;;;;;;;19.52;10.32;;;9.00;99.90;;;;;;5041983;28;20132;-57
2022/04/06 05:00:48;;;;;;;17.90;10.38;;;9.00;99.90;;;;;;5041568;28;20858;-58
2022/04/06 05:03:14;;;;;;;19.90;9.20;;;9.00;99.90;;;;;;5044196;28;20036;-58
2022/04/06 05:05:44;;;;;;;21.45;8.20;;;9.00;99.90;;;;;;5030150;28;20055;-58
2022/04/06 05:08:10;;;;;;;20.70;8.45;;;8.90;99.90;;;;;;5047003;28;20132;-57
2022/04/06 05:10:37;;;;;;;21.00;8.73;;;8.90;99.90;;;;;;5033668;28;20099;-57
2022/04/06 05:13:04;;;;;;;16.27;8.70;;;8.90;99.90;;;;;;5050013;28;20361;-58
2022/04/06 05:15:30;;;;;;;19.33;8.40;;;8.90;99.90;;;;;;5022247;28;20076;-57
2022/04/06 05:17:56;;;;;;;21.58;9.02;;;8.90;99.90;;;;;;5043373;28;20067;-57
2022/04/06 05:20:22;;;;;;;22.77;8.45;;;8.90;99.90;;;;;;5057110;28;20048;-57
2022/04/06 05:22:48;;;;;;;19.35;9.57;;;8.90;99.90;;;;;;5057819;28;20578;-57
2022/04/06 05:25:14;;;;;;;19.15;9.45;;;8.90;99.90;;;;;;5055714;28;20097;-57
2022/04/06 05:27:51;;;;;;;18.63;10.80;;;8.90;99.90;;;;;;5034951;28;20052;-56
2022/04/06 05:30:19;;;;;;;17.00;8.48;;;8.90;99.90;;;;;;5040027;28;20571;-57
2022/04/06 05:32:48;;;;;;;20.15;8.48;;;8.90;99.90;;;;;;5020692;28;20037;-56
2022/04/06 05:35:14;;;;;;;16.40;8.45;;;8.90;99.90;;;;;;5041845;28;20181;-57
2022/04/06 05:37:41;;;;;;;15.32;7.68;;;8.90;99.90;;;;;;5058164;28;20102;-57
2022/04/06 05:40:09;;;;;;;26.52;9.35;;;8.90;99.90;;;;;;5043251;28;20656;-57
2022/04/06 05:42:36;;;;;;;18.35;8.45;;;8.90;99.90;;;;;;5040199;28;20053;-56
2022/04/06 05:45:03;;;;;;;18.50;8.20;;;8.90;99.90;;;;;;5042180;28;20802;-57
2022/04/06 05:47:30;;;;;;;17.25;8.25;;;8.90;99.90;;;;;;5042552;28;20049;-57
2022/04/06 05:49:56;;;;;;;22.08;8.18;;;8.90;99.90;;;;;;5040050;28;20053;-62
2022/04/06 05:52:22;;;;;;;19.65;7.38;;;8.90;99.90;;;;;;5055886;28;20065;-62
2022/04/06 05:54:48;;;;;;;17.40;7.05;;;8.90;99.90;;;;;;5039514;28;20114;-62
2022/04/06 05:57:14;;;;;;;15.27;6.70;;;9.00;99.90;;;;;;5024393;28;20056;-62
2022/04/06 05:59:40;;;;;;;21.48;7.03;;;8.90;99.90;;;;;;5041700;28;20043;-62
2022/04/06 06:02:07;;;;;;;17.42;7.32;;;8.90;99.90;;;;;;5039662;28;20059;-62
2022/04/06 06:04:34;;;;;;;15.20;6.22;;;8.90;99.90;;;;;;5025158;28;20051;-62
2022/04/06 06:07:00;;;;;;;13.63;5.88;;;8.90;99.90;;;;;;5042198;28;20048;-62
2022/04/06 06:09:27;;;;;;;11.95;5.43;;;8.90;99.90;;;;;;5041742;28;20603;-62
2022/04/06 06:11:56;;;;;;;16.02;5.90;;;8.90;99.90;;;;;;5043185;28;20049;-62
2022/04/06 06:14:23;;;;;;;12.63;5.50;;;8.90;99.90;;;;;;5040834;28;20081;-62
2022/04/06 06:16:49;;;;;;;12.68;5.28;;;8.90;99.90;;;;;;5037733;28;20073;-63
2022/04/06 06:19:16;;;;;;;13.05;4.90;;;8.90;99.90;;;;;;5041192;28;20055;-61
2022/04/06 06:21:43;;;;;;;13.93;4.47;;;8.80;99.90;;;;;;5038202;28;20444;-62
2022/04/06 06:24:09;;;;;;;10.13;4.60;;;8.90;99.90;;;;;;5040970;28;20124;-62
2022/04/06 06:26:37;;;;;;;13.00;4.88;;;8.90;99.90;;;;;;5041650;28;20049;-62
2022/04/06 06:29:04;;;;;;;10.05;4.07;;;8.90;99.90;;;;;;5040935;28;20424;-63
2022/04/06 06:31:31;;;;;;;7.32;3.95;;;8.90;99.90;;;;;;5042666;28;20063;-62
2022/04/06 06:34:00;;;;;;;10.88;3.95;;;9.00;99.90;;;;;;5042636;28;20044;-62
2022/04/06 06:36:27;;;;;;;12.82;3.55;;;8.90;99.90;;;;;;5041408;28;20044;-62
2022/04/06 06:38:54;;;;;;;13.25;3.90;;;8.90;99.90;;;;;;5056449;28;20416;-62
2022/04/06 06:41:21;;;;;;;7.90;3.25;;;8.80;99.90;;;;;;5040968;28;20083;-62
2022/04/06 06:43:49;;;;;;;12.70;3.53;;;8.80;99.90;;;;;;5040517;28;20044;-62
2022/04/06 06:46:20;;;;;;;13.07;4.13;;;8.80;99.90;;;;;;5043133;28;20052;-63
2022/04/06 06:48:47;;;;;;;10.80;3.88;;;8.80;99.90;;;;;;5041028;28;20120;-63
2022/04/06 06:51:14;;;;;;;11.88;4.57;;;8.80;99.90;;;;;;5040531;28;20041;-62
2022/04/06 06:53:40;;;;;;;10.93;4.10;;;8.80;99.90;;;;;;5039505;28;20044;-63
2022/04/06 06:56:07;;;;;;;9.25;3.33;;;8.80;99.90;;;;;;5040022;28;20434;-62
2022/04/06 06:58:33;;;;;;;12.40;4.40;;;8.80;99.90;;;;;;5041697;28;20075;-64
2022/04/06 07:01:00;;;;;;;12.50;4.25;;;8.80;99.90;;;;;;5037479;28;20056;-64
2022/04/06 07:03:26;;;;;;;12.82;4.32;;;8.90;99.90;;;;;;5041227;28;20036;-64
2022/04/06 07:05:53;;;;;;;15.27;4.60;;;8.90;99.90;;;;;;5057205;28;20106;-64
2022/04/06 07:08:20;;;;;;;10.50;4.60;;;8.90;99.90;;;;;;5023957;28;20056;-63
2022/04/06 07:10:47;;;;;;;11.38;3.95;;;9.00;99.90;;;;;;5036490;28;20045;-63
2022/04/06 07:13:16;;;;;;;13.75;4.28;;;9.00;99.90;;;;;;5038633;28;20136;-64
2022/04/06 07:15:45;;;;;;;15.23;4.57;;;9.00;99.90;;;;;;5039700;28;20052;-63
2022/04/06 07:18:17;;;;;;;9.63;4.30;;;9.00;99.90;;;;;;5041778;28;20072;-63
2022/04/06 07:20:43;;;;;;;;;;;8.90;99.90;;;;;;5054552;28;20049;-63
2022/04/06 07:23:10;;;;;;;16.98;5.07;;;9.00;99.90;;;;;;5055921;28;19925;-63
2022/04/06 07:25:36;;;;;;;13.77;4.60;;;8.90;99.90;;;;;;5040018;28;20102;-64
2022/04/06 07:28:03;;;;;;;18.02;4.78;;;8.90;99.90;;;;;;5040754;28;20044;-63
2022/04/06 07:30:30;;;;;;;13.00;4.65;;;9.00;99.90;;;;;;5023440;28;20345;-64
2022/04/06 07:32:59;;;;;;;14.75;4.88;;;8.90;99.90;;;;;;5052725;28;20080;-63
2022/04/06 07:35:26;;;;;;;16.10;4.97;;;9.00;99.90;;;;;;5055840;28;20056;-63
2022/04/06 07:37:53;;;;;;;15.55;5.03;;;8.90;99.90;;;;;;5042031;28;20052;-57
2022/04/06 07:40:21;;;;;;;15.85;6.78;;;8.90;99.90;;;;;;5040596;28;20049;-57
2022/04/06 07:42:49;;;;;;;14.68;5.70;;;8.90;99.90;;;;;;5040392;28;20045;-57
2022/04/06 07:45:18;;;;;;;14.70;4.97;;;8.90;99.90;;;;;;5056113;28;20136;-56
2022/04/06 07:47:46;;;;;;;16.00;6.13;;;9.00;99.90;;;;;;5037766;28;20048;-56
2022/04/06 07:50:13;;;;;;;15.13;6.50;;;9.00;99.90;;;;;;5038354;28;20171;-56
2022/04/06 07:52:40;;;;;;;10.93;5.35;;;9.00;99.90;;;;;;5039528;28;20155;-56
2022/04/06 07:55:08;;;;;;;15.50;6.10;;;8.90;99.90;;;;;;5038429;28;20036;-56
2022/04/06 07:57:35;;;;;;;19.27;6.68;;;9.00;99.90;;;;;;5038774;28;20052;-57
2022/04/06 08:00:05;;;;;;;15.77;6.43;;;9.00;99.90;;;;;;5036659;28;20343;-56
2022/04/06 08:02:32;;;;;;;15.23;6.25;;;9.10;99.90;;;;;;5039892;28;20493;-62
2022/04/06 08:04:58;;;;;;;14.15;6.90;;;9.10;99.90;;;;;;5022225;28;20160;-63
2022/04/06 08:07:24;;;;;;;15.30;6.57;;;9.10;99.90;;;;;;5040885;28;20136;-63
2022/04/06 08:09:50;;;;;;;17.42;7.35;;;9.10;99.90;;;;;;5039890;28;20455;-63
2022/04/06 08:12:17;;;;;;;15.88;7.60;;;9.10;99.90;;;;;;5041049;28;20505;-62
2022/04/06 08:14:43;;;;;;;16.13;6.55;;;9.10;99.90;;;;;;5038687;28;20493;-63
2022/04/06 08:17:09;;;;;;;15.60;7.50;;;9.20;99.90;;;;;;5039638;28;20075;-63
2022/04/06 08:19:35;;;;;;;15.23;7.15;;;9.20;99.90;;;;;;5038534;28;20056;-63
2022/04/06 08:22:01;;;;;;;16.73;8.55;;;9.10;99.90;;;;;;5040418;28;20763;-63
2022/04/06 08:24:27;;;;;;;16.08;8.20;;;9.20;99.90;;;;;;5040697;28;20075;-57
2022/04/06 08:26:53;;;;;;;14.70;7.63;;;9.10;99.90;;;;;;5040628;28;20528;-57
2022/04/06 08:29:20;;;;;;;23.92;8.45;;;9.00;99.90;;;;;;5040317;28;20515;-56
2022/04/06 08:31:46;;;;;;;16.92;8.48;;;8.90;99.90;;;;;;5039221;28;20436;-57
2022/04/06 08:34:12;;;;;;;19.10;8.70;;;9.00;99.90;;;;;;5039695;28;20492;-56
2022/04/06 08:36:40;;;;;;;22.67;9.27;;;9.00;99.90;;;;;;5041071;28;20120;-57
2022/04/06 08:39:06;;;;;;;19.60;9.85;;;9.00;99.90;;;;;;5038519;28;20545;-56
2022/04/06 08:41:32;;;;;;;16.65;7.50;;;9.00;99.90;;;;;;5038719;28;20398;-57
2022/04/06 08:43:59;;;;;;;22.45;8.85;;;9.00;99.90;;;;;;5041022;28;20048;-57
2022/04/06 08:46:25;;;;;;;17.95;8.07;;;8.90;99.90;;;;;;5040994;28;21277;-63
2022/04/06 08:48:52;;;;;;;15.65;8.05;;;8.90;99.90;;;;;;5041069;28;20117;-63
2022/04/06 08:51:20;;;;;;;13.68;7.60;;;8.90;99.90;;;;;;5044377;28;20412;-62
2022/04/06 08:53:47;;;;;;;18.85;7.55;;;8.90;99.90;;;;;;5040623;28;20557;-63
2022/04/06 08:56:14;;;;;;;17.67;8.32;;;8.90;99.90;;;;;;5043341;28;20037;-64
2022/04/06 08:58:41;;;;;;;15.93;6.90;;;8.90;99.90;;;;;;5043885;28;20053;-63
2022/04/06 09:01:08;;;;;;;15.35;6.72;;;8.90;99.90;;;;;;5042719;28;20179;-63
2022/04/06 09:03:35;;;;;;;17.13;7.25;;;8.90;99.90;;;;;;5026332;28;20061;-63
2022/04/06 09:06:12;;;;;;;14.13;7.15;;;8.80;99.90;;;;;;5040507;28;20059;-62
2022/04/06 09:08:41;;;;;;;15.07;6.50;;;8.90;99.90;;;;;;5044029;28;20574;-63
2022/04/06 09:11:18;;;;;;;20.73;6.30;;;8.90;99.90;;;;;;5041250;28;20060;-63
2022/04/06 09:13:46;;;;;;;16.25;6.13;;;9.00;99.90;;;;;;5041065;28;20056;-63
2022/04/06 09:16:14;;;;;;;11.05;5.50;;;9.00;99.90;;;;;;5045602;28;20122;-62
2022/04/06 09:18:44;;;;;;;15.52;6.25;;;9.00;99.90;;;;;;5043493;28;20088;-62
2022/04/06 09:21:13;;;;;;;9.63;5.20;;;9.00;99.90;;;;;;5058796;28;20080;-63
2022/04/06 09:23:39;;;;;;;12.02;4.85;;;9.20;99.90;;;;;;5040834;28;20041;-63
2022/04/06 09:26:11;;;;;;;15.25;6.28;;;9.40;99.90;;;;;;5058909;28;20056;-56
2022/04/06 09:28:42;;;;;;;15.95;5.68;;;9.60;99.90;;;;;;5041959;28;20045;-56
2022/04/06 09:31:12;;;;;;;10.20;4.75;;;9.80;99.90;;;;;;5043816;28;20447;-56
2022/04/06 09:33:41;;;;;;;10.48;4.75;;;9.80;99.90;;;;;;5043745;28;20049;-56
2022/04/06 09:36:20;;;;;;;12.63;5.38;;;9.80;99.90;;;;;;5043221;28;20496;-56
2022/04/06 09:38:51;;;;;;;14.70;5.93;;;9.80;99.90;;;;;;5044668;28;20520;-56
2022/04/06 09:41:19;;;;;;;8.73;4.97;;;9.80;99.90;;;;;;5044221;28;20128;-63
2022/04/06 09:43:46;;;;;;;13.15;5.53;;;9.90;99.90;;;;;;5042242;28;20075;-56
2022/04/06 09:49:13;;;;;;;13.82;6.90;;;9.80;99.90;;;;;;5041900;28;20064;-56
2022/04/06 09:51:42;;;;;;;13.77;6.15;;;9.90;99.90;;;;;;5043161;28;20127;-56
2022/04/06 09:54:12;;;;;;;10.95;5.78;;;9.90;99.90;;;;;;5054006;28;20041;-56
2022/04/06 09:56:39;;;;;;;12.70;5.97;;;9.90;99.90;;;;;;5041473;28;20478;-55
2022/04/06 09:59:06;;;;;;;10.70;6.47;;;9.90;99.90;;;;;;5039954;28;20069;-56
2022/04/06 10:01:34;;;;;;;12.13;6.43;;;10.00;99.90;;;;;;5025348;28;20497;-56
2022/04/06 10:04:09;;;;;;;17.98;6.57;;;10.10;99.90;;;;;;5040042;28;20139;-55
2022/04/06 10:06:37;;;;;;;14.18;6.50;;;10.10;99.90;;;;;;5055652;28;20074;-56
2022/04/06 10:09:06;;;;;;;12.73;6.43;;;10.20;99.90;;;;;;5041244;28;20504;-56
2022/04/06 10:11:36;;;;;;;12.65;7.28;;;10.20;99.90;;;;;;5042216;28;20132;-55
2022/04/06 10:14:05;;;;;;;14.85;7.32;;;10.20;99.90;;;;;;5040748;28;20048;-57
2022/04/06 10:16:36;;;;;;;12.93;6.68;;;10.20;99.90;;;;;;5043059;28;20045;-56
2022/04/06 10:19:05;;;;;;;15.25;7.88;;;10.20;99.90;;;;;;5041182;28;20555;-56
2022/04/06 10:21:59;;;;;;;17.83;7.45;;;10.20;99.90;;;;;;5042978;28;20045;-56
2022/04/06 10:25:08;;;;;;;14.63;7.40;;;10.20;99.90;;;;;;5040078;28;20048;-56
2022/04/06 10:27:51;;;;;;;13.20;6.85;;;10.20;99.90;;;;;;5055860;28;20379;-56
2022/04/06 10:30:27;;;;;;;14.43;7.35;;;10.20;99.90;;;;;;5042181;28;20091;-57
2022/04/06 10:32:57;;;;;;;16.45;7.45;;;10.30;99.90;;;;;;5039472;28;20048;-53
2022/04/06 10:35:33;;;;;;;16.02;8.18;;;10.30;99.90;;;;;;5040651;28;20087;-56
2022/04/06 10:38:02;;;;;;;13.57;7.32;;;10.20;99.90;;;;;;5040125;28;20052;-57
2022/04/06 10:40:49;;;;;;;14.77;7.63;;;10.30;99.90;;;;;;5058028;28;20494;-56
2022/04/06 10:43:34;;;;;;;14.77;7.38;;;10.20;99.90;;;;;;5042719;28;20048;-63
2022/04/06 10:46:00;;;;;;;13.65;7.28;;;10.20;99.90;;;;;;5044729;28;20099;-63
2022/04/06 10:48:27;;;;;;;16.35;8.10;;;10.20;99.90;;;;;;5056944;28;20052;-57
2022/04/06 10:51:13;;;;;;;16.88;8.40;;;10.20;99.90;;;;;;5037143;28;20041;-63
2022/04/06 10:53:39;;;;;;;20.42;8.70;;;10.20;99.90;;;;;;5040653;28;20084;-58
2022/04/06 10:56:17;;;;;;;15.20;7.95;;;10.10;99.90;;;;;;5040420;28;20767;-63
2022/04/06 10:59:01;;;;;;;12.70;7.63;;;10.10;99.90;;;;;;5039226;28;20463;-63
2022/04/06 11:01:35;;;;;;;14.32;8.20;;;10.20;99.90;;;;;;5023849;28;20511;-57
2022/04/06 11:04:04;;;;;;;19.38;9.02;;;10.10;99.90;;;;;;5039941;28;20041;-57
2022/04/06 11:06:49;;;;;;;15.75;8.30;;;10.10;99.90;;;;;;5041824;28;20135;-63
2022/04/06 11:12:31;;;;;;;16.58;9.55;;;10.10;99.90;;;;;;5039589;28;20222;-57
2022/04/06 11:15:00;;;;;;;15.70;10.05;;;10.20;99.90;;;;;;5041719;28;20514;-57
2022/04/06 11:17:34;;;;;;;16.17;10.98;;;10.10;99.90;;;;;;5039078;28;20503;-63
2022/04/06 11:20:04;;;;;;;16.50;11.77;;;10.00;99.90;;;;;;5039726;28;20052;-57
2022/04/06 11:22:31;;;;;;;15.30;12.40;;;9.90;99.90;;;;;;5041851;28;20463;-56
2022/04/06 11:24:59;;;;;;;18.10;11.88;;;9.80;99.90;;;;;;5041619;28;20084;-56
2022/04/06 11:27:30;;;;;;;21.15;11.60;;;9.80;99.90;;;;;;5041675;28;20439;-57
2022/04/06 11:30:07;;;;;;;20.58;12.63;;;9.80;99.90;;;;;;5040320;28;20124;-63
2022/04/06 11:32:34;;;;;;;14.80;12.02;;;9.80;99.90;;;;;;5023086;28;20075;-56
2022/04/06 11:35:05;;;;;;;15.45;11.88;;;9.90;99.90;;;;;;5005585;28;20095;-63
2022/04/06 11:37:48;;;;;;;17.98;12.77;;;10.00;99.90;;;;;;5039795;28;20033;-63
2022/04/06 11:40:26;;;;;;;18.05;12.65;;;10.10;99.90;;;;;;5040519;28;20519;-63
2022/04/06 11:42:54;;;;;;;16.42;12.07;;;10.10;99.90;;;;;;5040902;28;20041;-57
2022/04/06 11:45:22;;;;;;;19.67;12.27;;;10.20;99.90;;;;;;5037533;28;20110;-57
2022/04/06 11:47:56;;;;;;;16.15;11.52;;;10.30;99.90;;;;;;5039568;28;20086;-63
2022/04/06 11:50:28;;;;;;;16.40;10.80;;;10.30;99.90;;;;;;5040303;28;20041;-64
2022/04/06 11:52:54;;;;;;;;;;;10.30;99.90;;;;;;4990871;28;20041;-57
2022/04/06 11:55:20;;;;;;;17.63;11.20;;;10.30;99.90;;;;;;5038804;28;19927;-63
2022/04/06 11:57:46;;;;;;;16.58;10.98;;;10.30;99.90;;;;;;5040249;28;20040;-63
2022/04/06 12:00:15;;;;;;;16.83;10.70;;;10.30;99.90;;;;;;5038790;28;20037;-61
2022/04/06 12:02:47;;;;;;;16.02;10.90;;;10.40;99.90;;;;;;5034899;28;20461;-63
2022/04/06 12:05:14;;;;;;;15.43;9.90;;;10.60;99.90;;;;;;5019997;28;20131;-63
2022/04/06 12:07:40;;;;;;;17.65;10.43;;;10.60;99.90;;;;;;5021387;28;20048;-64
2022/04/06 12:10:06;;;;;;;16.20;9.93;;;10.60;99.90;;;;;;5022679;28;20576;-56
2022/04/06 12:12:36;;;;;;;15.32;10.73;;;10.70;99.90;;;;;;5003710;28;20128;-57
2022/04/06 12:15:04;;;;;;;16.40;12.25;;;10.70;99.90;;;;;;5039587;28;20047;-57
2022/04/06 12:17:36;;;;;;;18.38;12.27;;;10.90;99.90;;;;;;5040525;28;20480;-57
2022/04/06 12:20:21;;;;;;;;;;;11.10;99.90;;;;;;5003781;28;20053;-58
2022/04/06 12:23:00;;;;;;;18.33;11.07;;;11.10;99.90;;;;;;5041421;28;19921;-57
2022/04/06 12:25:31;;;;;;;14.25;9.32;;;11.10;99.90;;;;;;5024099;28;20076;-58
2022/04/06 12:28:11;;;;;;;19.25;10.43;;;11.00;99.90;;;;;;5044417;28;20159;-56
2022/04/06 12:31:12;;;;;;;15.25;9.35;;;11.00;99.90;;;;;;5057728;28;20043;-56
2022/04/06 12:33:44;;;;;;;15.27;10.05;;;11.00;99.90;;;;;;5001316;28;20061;-57
2022/04/06 12:36:15;;;;;;;19.05;11.63;;;11.00;99.90;;;;;;5032804;28;20120;-56
2022/04/06 12:38:56;;;;;;;14.27;10.30;;;11.00;99.90;;;;;;5042965;28;20088;-56
2022/04/06 12:41:23;;;;;;;16.75;10.75;;;10.90;99.90;;;;;;5042329;28;20453;-56
2022/04/06 12:43:49;;;;;;;15.98;10.13;;;10.90;99.90;;;;;;5043679;28;20080;-57
2022/04/06 12:46:41;;;;;;;17.42;10.55;;;10.90;99.90;;;;;;5058910;28;20131;-57
2022/04/06 12:49:16;;;;;;;;;;;10.90;99.90;;;;;;5026798;28;20126;-56
2022/04/06 12:51:43;;;;;;;12.80;9.38;;;10.90;99.90;;;;;;5025764;28;20315;-57
2022/04/06 12:54:09;;;;;;;14.73;9.73;;;11.00;99.90;;;;;;5041666;28;20045;-56
2022/04/06 12:56:35;;;;;;;14.65;9.60;;;11.00;99.90;;;;;;5044310;28;20488;-57